sensor_id;sensor_type;location;lat;lon;timestamp;pressure;altitude;pressure_sealevel;temperature;humidity
45441;BME280;31189;38.790;-77.084;2022-07-29T00:02:17;100876.02;;;31.00;76.53
45441;BME280;31189;38.790;-77.084;2022-07-29T00:04:46;100875.51;;;31.50;75.51
45441;BME280;31189;38.790;-77.084;2022-07-29T00:07:14;100877.60;;;30.98;76.68
45441;BME280;31189;38.790;-77.084;2022-07-29T00:09:41;100886.10;;;32.07;73.99
45441;BME280;31189;38.790;-77.084;2022-07-29T00:12:09;100898.83;;;31.78;73.49
45441;BME280;31189;38.790;-77.084;2022-07-29T00:14:37;100945.47;;;32.05;74.87
45441;BME280;31189;38.790;-77.084;2022-07-29T00:17:05;100980.05;;;30.29;69.18
45441;BME280;31189;38.790;-77.084;2022-07-29T00:19:33;100990.66;;;27.60;72.49
45441;BME280;31189;38.790;-77.084;2022-07-29T00:22:01;101009.09;;;26.83;78.12
45441;BME280;31189;38.790;-77.084;2022-07-29T00:24:29;101043.89;;;26.89;93.77
45441;BME280;31189;38.790;-77.084;2022-07-29T00:26:57;101064.09;;;25.54;100.00
45441;BME280;31189;38.790;-77.084;2022-07-29T00:29:25;101071.18;;;26.18;97.76
45441;BME280;31189;38.790;-77.084;2022-07-29T00:31:54;101049.18;;;26.52;96.10
45441;BME280;31189;38.790;-77.084;2022-07-29T00:34:21;101035.97;;;27.63;93.65
45441;BME280;31189;38.790;-77.084;2022-07-29T00:36:54;101033.48;;;27.15;93.53
45441;BME280;31189;38.790;-77.084;2022-07-29T00:39:21;101027.47;;;27.55;93.63
45441;BME280;31189;38.790;-77.084;2022-07-29T00:41:49;101029.53;;;26.95;95.49
45441;BME280;31189;38.790;-77.084;2022-07-29T00:44:18;101034.14;;;26.60;98.72
45441;BME280;31189;38.790;-77.084;2022-07-29T00:46:46;101046.25;;;25.34;100.00
45441;BME280;31189;38.790;-77.084;2022-07-29T00:49:14;101055.61;;;26.20;100.00
45441;BME280;31189;38.790;-77.084;2022-07-29T00:51:42;101040.27;;;25.87;100.00
45441;BME280;31189;38.790;-77.084;2022-07-29T00:54:10;101039.91;;;25.13;100.00
45441;BME280;31189;38.790;-77.084;2022-07-29T00:56:38;101021.54;;;26.01;100.00
45441;BME280;31189;38.790;-77.084;2022-07-29T00:59:06;101004.43;;;26.01;100.00
45441;BME280;31189;38.790;-77.084;2022-07-29T01:01:35;101018.58;;;26.06;99.76
45441;BME280;31189;38.790;-77.084;2022-07-29T01:04:03;101015.56;;;26.39;99.60
45441;BME280;31189;38.790;-77.084;2022-07-29T01:06:33;101011.15;;;26.96;98.40
45441;BME280;31189;38.790;-77.084;2022-07-29T01:09:02;101003.47;;;26.46;97.44
45441;BME280;31189;38.790;-77.084;2022-07-29T01:11:30;101011.57;;;27.16;97.52
45441;BME280;31189;38.790;-77.084;2022-07-29T01:13:58;101021.66;;;27.08;99.14
45441;BME280;31189;38.790;-77.084;2022-07-29T01:16:30;101029.73;;;27.74;95.99
45441;BME280;31189;38.790;-77.084;2022-07-29T01:19:07;101029.17;;;26.96;96.53
45441;BME280;31189;38.790;-77.084;2022-07-29T01:21:53;101042.87;;;27.71;99.41
45441;BME280;31189;38.790;-77.084;2022-07-29T01:24:33;101041.83;;;28.10;96.00
45441;BME280;31189;38.790;-77.084;2022-07-29T01:27:21;101051.93;;;28.11;94.87
45441;BME280;31189;38.790;-77.084;2022-07-29T01:29:55;101056.68;;;28.18;92.97
45441;BME280;31189;38.790;-77.084;2022-07-29T01:32:27;101057.68;;;28.04;96.56
45441;BME280;31189;38.790;-77.084;2022-07-29T01:35:02;101062.33;;;27.90;96.03
45441;BME280;31189;38.790;-77.084;2022-07-29T01:37:35;101068.24;;;28.21;96.24
45441;BME280;31189;38.790;-77.084;2022-07-29T01:40:11;101063.96;;;28.03;96.27
45441;BME280;31189;38.790;-77.084;2022-07-29T01:42:44;101066.20;;;28.29;96.77
45441;BME280;31189;38.790;-77.084;2022-07-29T01:45:17;101070.80;;;28.79;93.98
45441;BME280;31189;38.790;-77.084;2022-07-29T01:47:56;101081.15;;;27.93;94.86
45441;BME280;31189;38.790;-77.084;2022-07-29T01:50:32;101082.59;;;28.59;95.21
45441;BME280;31189;38.790;-77.084;2022-07-29T01:53:04;101083.45;;;28.23;94.78
45441;BME280;31189;38.790;-77.084;2022-07-29T01:55:36;101084.49;;;28.60;94.21
45441;BME280;31189;38.790;-77.084;2022-07-29T01:58:07;101090.50;;;28.31;95.34
45441;BME280;31189;38.790;-77.084;2022-07-29T02:00:38;101099.52;;;28.98;94.39
45441;BME280;31189;38.790;-77.084;2022-07-29T02:03:11;101099.83;;;28.39;95.31
45441;BME280;31189;38.790;-77.084;2022-07-29T02:05:42;101104.11;;;28.23;96.40
45441;BME280;31189;38.790;-77.084;2022-07-29T02:08:13;101109.03;;;28.41;95.74
45441;BME280;31189;38.790;-77.084;2022-07-29T02:10:43;101109.34;;;28.34;94.28
45441;BME280;31189;38.790;-77.084;2022-07-29T02:13:13;101107.48;;;28.36;93.59
45441;BME280;31189;38.790;-77.084;2022-07-29T02:15:42;101117.72;;;27.94;95.60
45441;BME280;31189;38.790;-77.084;2022-07-29T02:18:15;101114.06;;;28.37;93.94
45441;BME280;31189;38.790;-77.084;2022-07-29T02:20:47;101113.03;;;27.20;98.12
45441;BME280;31189;38.790;-77.084;2022-07-29T02:23:17;101114.87;;;28.05;97.19
45441;BME280;31189;38.790;-77.084;2022-07-29T02:25:50;101116.30;;;27.50;98.50
45441;BME280;31189;38.790;-77.084;2022-07-29T02:28:19;101114.01;;;27.13;99.38
45441;BME280;31189;38.790;-77.084;2022-07-29T02:30:49;101110.44;;;28.55;96.96
45441;BME280;31189;38.790;-77.084;2022-07-29T02:33:19;101108.59;;;28.67;93.13
45441;BME280;31189;38.790;-77.084;2022-07-29T02:35:49;101107.90;;;28.47;93.87
45441;BME280;31189;38.790;-77.084;2022-07-29T02:38:18;101105.89;;;28.65;92.05
45441;BME280;31189;38.790;-77.084;2022-07-29T02:40:48;101105.32;;;28.80;91.37
45441;BME280;31189;38.790;-77.084;2022-07-29T02:43:19;101106.86;;;28.74;92.06
45441;BME280;31189;38.790;-77.084;2022-07-29T02:45:51;101114.00;;;28.88;91.41
45441;BME280;31189;38.790;-77.084;2022-07-29T02:48:27;101121.45;;;28.16;93.93
45441;BME280;31189;38.790;-77.084;2022-07-29T02:51:05;101122.08;;;28.05;95.02
45441;BME280;31189;38.790;-77.084;2022-07-29T02:53:35;101121.06;;;28.11;95.98
45441;BME280;31189;38.790;-77.084;2022-07-29T02:56:08;101127.48;;;28.37;95.75
45441;BME280;31189;38.790;-77.084;2022-07-29T02:58:40;101123.95;;;27.80;97.77
45441;BME280;31189;38.790;-77.084;2022-07-29T03:01:16;101122.28;;;28.30;94.38
45441;BME280;31189;38.790;-77.084;2022-07-29T03:03:50;101118.17;;;28.66;92.75
45441;BME280;31189;38.790;-77.084;2022-07-29T03:06:22;101114.59;;;28.80;91.08
45441;BME280;31189;38.790;-77.084;2022-07-29T03:08:51;101111.86;;;28.12;93.93
45441;BME280;31189;38.790;-77.084;2022-07-29T03:11:20;101113.07;;;28.79;93.07
45441;BME280;31189;38.790;-77.084;2022-07-29T03:13:49;101111.72;;;28.80;92.64
45441;BME280;31189;38.790;-77.084;2022-07-29T03:16:18;101107.30;;;28.70;92.81
45441;BME280;31189;38.790;-77.084;2022-07-29T03:18:48;101109.47;;;28.57;94.57
45441;BME280;31189;38.790;-77.084;2022-07-29T03:21:15;101110.44;;;28.96;93.61
45441;BME280;31189;38.790;-77.084;2022-07-29T03:23:44;101110.34;;;28.23;94.60
45441;BME280;31189;38.790;-77.084;2022-07-29T03:26:13;101109.64;;;28.35;94.98
45441;BME280;31189;38.790;-77.084;2022-07-29T03:28:41;101106.75;;;27.97;94.76
45441;BME280;31189;38.790;-77.084;2022-07-29T03:31:09;101105.39;;;28.27;95.22
45441;BME280;31189;38.790;-77.084;2022-07-29T03:33:36;101098.17;;;28.77;93.52
45441;BME280;31189;38.790;-77.084;2022-07-29T03:36:05;101096.06;;;28.91;92.93
45441;BME280;31189;38.790;-77.084;2022-07-29T03:38:34;101095.80;;;28.75;92.42
45441;BME280;31189;38.790;-77.084;2022-07-29T03:41:07;101095.57;;;28.76;91.94
45441;BME280;31189;38.790;-77.084;2022-07-29T03:43:37;101092.46;;;28.84;91.63
45441;BME280;31189;38.790;-77.084;2022-07-29T03:46:07;101093.20;;;28.56;90.83
45441;BME280;31189;38.790;-77.084;2022-07-29T03:48:39;101092.28;;;29.03;89.36
45441;BME280;31189;38.790;-77.084;2022-07-29T03:51:08;101092.92;;;28.89;91.43
45441;BME280;31189;38.790;-77.084;2022-07-29T03:53:36;101101.36;;;28.62;93.16
45441;BME280;31189;38.790;-77.084;2022-07-29T03:56:06;101107.65;;;28.65;92.42
45441;BME280;31189;38.790;-77.084;2022-07-29T03:58:35;101112.10;;;28.65;92.11
45441;BME280;31189;38.790;-77.084;2022-07-29T04:01:03;101109.97;;;28.91;91.67
45441;BME280;31189;38.790;-77.084;2022-07-29T04:03:31;101107.75;;;29.03;92.47
45441;BME280;31189;38.790;-77.084;2022-07-29T04:06:00;101111.09;;;28.63;94.31
45441;BME280;31189;38.790;-77.084;2022-07-29T04:08:29;101114.31;;;27.62;96.78
45441;BME280;31189;38.790;-77.084;2022-07-29T04:10:57;101109.72;;;27.62;97.03
45441;BME280;31189;38.790;-77.084;2022-07-29T04:13:25;101111.17;;;28.32;95.50
45441;BME280;31189;38.790;-77.084;2022-07-29T04:15:54;101114.78;;;28.31;92.47
45441;BME280;31189;38.790;-77.084;2022-07-29T04:18:22;101114.02;;;29.17;91.13
45441;BME280;31189;38.790;-77.084;2022-07-29T04:20:51;101114.53;;;27.73;94.68
45441;BME280;31189;38.790;-77.084;2022-07-29T04:23:18;101110.30;;;28.77;91.90
45441;BME280;31189;38.790;-77.084;2022-07-29T04:25:47;101103.56;;;28.48;91.39
45441;BME280;31189;38.790;-77.084;2022-07-29T04:28:15;101103.98;;;28.76;90.07
45441;BME280;31189;38.790;-77.084;2022-07-29T04:30:43;101108.82;;;28.88;90.68
45441;BME280;31189;38.790;-77.084;2022-07-29T04:33:11;101110.18;;;29.19;91.23
45441;BME280;31189;38.790;-77.084;2022-07-29T04:35:40;101102.38;;;28.77;92.40
45441;BME280;31189;38.790;-77.084;2022-07-29T04:38:08;101100.44;;;28.38;93.72
45441;BME280;31189;38.790;-77.084;2022-07-29T04:40:36;101097.35;;;28.30;94.39
45441;BME280;31189;38.790;-77.084;2022-07-29T04:43:04;101093.67;;;27.71;97.14
45441;BME280;31189;38.790;-77.084;2022-07-29T04:45:33;101088.57;;;28.09;94.89
45441;BME280;31189;38.790;-77.084;2022-07-29T04:48:01;101084.74;;;28.40;91.61
45441;BME280;31189;38.790;-77.084;2022-07-29T04:50:29;101081.49;;;28.94;90.73
45441;BME280;31189;38.790;-77.084;2022-07-29T04:52:57;101076.59;;;28.91;89.95
45441;BME280;31189;38.790;-77.084;2022-07-29T04:55:25;101075.11;;;28.50;92.30
45441;BME280;31189;38.790;-77.084;2022-07-29T04:57:53;101078.99;;;28.75;90.68
45441;BME280;31189;38.790;-77.084;2022-07-29T05:00:21;101080.89;;;28.91;90.71
45441;BME280;31189;38.790;-77.084;2022-07-29T05:02:49;101083.58;;;28.43;92.04
45441;BME280;31189;38.790;-77.084;2022-07-29T05:05:17;101081.39;;;28.93;91.47
45441;BME280;31189;38.790;-77.084;2022-07-29T05:07:45;101072.76;;;28.34;92.57
45441;BME280;31189;38.790;-77.084;2022-07-29T05:10:13;101066.88;;;28.84;92.20
45441;BME280;31189;38.790;-77.084;2022-07-29T05:12:41;101064.97;;;28.81;91.91
45441;BME280;31189;38.790;-77.084;2022-07-29T05:15:09;101069.54;;;28.69;91.83
45441;BME280;31189;38.790;-77.084;2022-07-29T05:17:38;101069.75;;;28.95;91.67
45441;BME280;31189;38.790;-77.084;2022-07-29T05:20:06;101063.41;;;28.65;92.07
45441;BME280;31189;38.790;-77.084;2022-07-29T05:22:34;101059.07;;;28.67;90.11
45441;BME280;31189;38.790;-77.084;2022-07-29T05:25:03;101062.07;;;28.64;90.55
45441;BME280;31189;38.790;-77.084;2022-07-29T05:27:31;101058.07;;;28.75;90.73
45441;BME280;31189;38.790;-77.084;2022-07-29T05:29:58;101055.81;;;28.54;91.27
45441;BME280;31189;38.790;-77.084;2022-07-29T05:32:26;101056.70;;;28.18;92.99
45441;BME280;31189;38.790;-77.084;2022-07-29T05:34:54;101058.13;;;28.28;92.53
45441;BME280;31189;38.790;-77.084;2022-07-29T05:37:23;101061.39;;;28.34;93.07
45441;BME280;31189;38.790;-77.084;2022-07-29T05:39:51;101058.73;;;28.04;93.93
45441;BME280;31189;38.790;-77.084;2022-07-29T05:42:19;101059.11;;;28.39;93.91
45441;BME280;31189;38.790;-77.084;2022-07-29T05:44:49;101068.61;;;28.56;93.30
45441;BME280;31189;38.790;-77.084;2022-07-29T05:47:17;101074.37;;;28.21;91.89
45441;BME280;31189;38.790;-77.084;2022-07-29T05:49:45;101071.39;;;28.34;91.51
45441;BME280;31189;38.790;-77.084;2022-07-29T05:52:14;101067.72;;;27.39;94.74
45441;BME280;31189;38.790;-77.084;2022-07-29T05:54:43;101069.86;;;28.62;92.41
45441;BME280;31189;38.790;-77.084;2022-07-29T05:57:16;101069.32;;;28.76;92.21
45441;BME280;31189;38.790;-77.084;2022-07-29T05:59:44;101063.49;;;28.84;91.29
45441;BME280;31189;38.790;-77.084;2022-07-29T06:02:12;101062.08;;;28.23;91.49
45441;BME280;31189;38.790;-77.084;2022-07-29T06:04:40;101060.89;;;27.72;94.44
45441;BME280;31189;38.790;-77.084;2022-07-29T06:07:08;101052.79;;;28.70;91.49
45441;BME280;31189;38.790;-77.084;2022-07-29T06:09:37;101053.88;;;28.18;91.82
45441;BME280;31189;38.790;-77.084;2022-07-29T06:12:05;101058.14;;;28.60;90.43
45441;BME280;31189;38.790;-77.084;2022-07-29T06:14:33;101059.17;;;28.80;89.42
45441;BME280;31189;38.790;-77.084;2022-07-29T06:17:02;101060.35;;;28.25;90.72
45441;BME280;31189;38.790;-77.084;2022-07-29T06:19:31;101060.58;;;28.49;90.99
45441;BME280;31189;38.790;-77.084;2022-07-29T06:22:01;101057.77;;;28.22;90.80
45441;BME280;31189;38.790;-77.084;2022-07-29T06:24:29;101054.91;;;28.57;91.35
45441;BME280;31189;38.790;-77.084;2022-07-29T06:26:57;101050.31;;;28.22;92.26
45441;BME280;31189;38.790;-77.084;2022-07-29T06:29:25;101056.85;;;28.01;90.71
45441;BME280;31189;38.790;-77.084;2022-07-29T06:31:53;101058.91;;;28.61;89.04
45441;BME280;31189;38.790;-77.084;2022-07-29T06:34:22;101051.20;;;28.86;89.81
45441;BME280;31189;38.790;-77.084;2022-07-29T06:36:51;101048.56;;;28.05;90.84
45441;BME280;31189;38.790;-77.084;2022-07-29T06:39:18;101051.23;;;28.43;92.49
45441;BME280;31189;38.790;-77.084;2022-07-29T06:41:50;101051.90;;;28.25;92.05
45441;BME280;31189;38.790;-77.084;2022-07-29T06:44:19;101047.07;;;28.48;88.99
45441;BME280;31189;38.790;-77.084;2022-07-29T06:46:46;101043.51;;;28.76;89.47
45441;BME280;31189;38.790;-77.084;2022-07-29T06:49:15;101043.11;;;28.69;89.34
45441;BME280;31189;38.790;-77.084;2022-07-29T06:51:43;101046.72;;;28.33;90.42
45441;BME280;31189;38.790;-77.084;2022-07-29T06:54:11;101046.16;;;28.03;91.47
45441;BME280;31189;38.790;-77.084;2022-07-29T06:56:39;101051.37;;;28.48;90.46
45441;BME280;31189;38.790;-77.084;2022-07-29T06:59:09;101057.08;;;28.18;89.82
45441;BME280;31189;38.790;-77.084;2022-07-29T07:01:37;101053.19;;;28.29;90.95
45441;BME280;31189;38.790;-77.084;2022-07-29T07:04:06;101051.70;;;28.03;89.85
45441;BME280;31189;38.790;-77.084;2022-07-29T07:06:34;101052.65;;;28.17;90.00
45441;BME280;31189;38.790;-77.084;2022-07-29T07:09:02;101054.38;;;28.28;89.92
45441;BME280;31189;38.790;-77.084;2022-07-29T07:11:31;101058.01;;;28.19;90.63
45441;BME280;31189;38.790;-77.084;2022-07-29T07:13:58;101056.99;;;28.07;91.46
45441;BME280;31189;38.790;-77.084;2022-07-29T07:16:27;101055.93;;;28.12;91.37
45441;BME280;31189;38.790;-77.084;2022-07-29T07:18:55;101054.12;;;28.27;90.60
45441;BME280;31189;38.790;-77.084;2022-07-29T07:21:23;101047.11;;;27.86;91.81
45441;BME280;31189;38.790;-77.084;2022-07-29T07:23:51;101049.39;;;27.32;93.40
45441;BME280;31189;38.790;-77.084;2022-07-29T07:26:19;101051.25;;;27.60;92.21
45441;BME280;31189;38.790;-77.084;2022-07-29T07:28:47;101047.70;;;28.39;89.61
45441;BME280;31189;38.790;-77.084;2022-07-29T07:31:15;101046.35;;;27.83;89.92
45441;BME280;31189;38.790;-77.084;2022-07-29T07:33:44;101050.40;;;28.44;89.16
45441;BME280;31189;38.790;-77.084;2022-07-29T07:36:12;101055.51;;;27.26;92.59
45441;BME280;31189;38.790;-77.084;2022-07-29T07:38:39;101061.09;;;28.60;88.51
45441;BME280;31189;38.790;-77.084;2022-07-29T07:41:08;101060.54;;;28.46;88.76
45441;BME280;31189;38.790;-77.084;2022-07-29T07:43:36;101067.99;;;27.99;90.65
45441;BME280;31189;38.790;-77.084;2022-07-29T07:46:04;101069.77;;;28.16;90.19
45441;BME280;31189;38.790;-77.084;2022-07-29T07:48:32;101066.04;;;28.42;88.59
45441;BME280;31189;38.790;-77.084;2022-07-29T07:51:01;101059.94;;;28.31;89.33
45441;BME280;31189;38.790;-77.084;2022-07-29T07:53:29;101057.20;;;28.31;89.17
45441;BME280;31189;38.790;-77.084;2022-07-29T07:55:57;101057.12;;;28.41;88.69
45441;BME280;31189;38.790;-77.084;2022-07-29T07:58:25;101058.74;;;28.33;89.54
45441;BME280;31189;38.790;-77.084;2022-07-29T08:00:53;101055.44;;;27.90;88.86
45441;BME280;31189;38.790;-77.084;2022-07-29T08:03:21;101052.22;;;28.17;89.08
45441;BME280;31189;38.790;-77.084;2022-07-29T08:05:50;101047.56;;;28.25;88.79
45441;BME280;31189;38.790;-77.084;2022-07-29T08:08:17;101045.33;;;28.17;88.91
45441;BME280;31189;38.790;-77.084;2022-07-29T08:10:46;101048.32;;;28.06;89.57
45441;BME280;31189;38.790;-77.084;2022-07-29T08:13:14;101047.44;;;28.28;88.15
45441;BME280;31189;38.790;-77.084;2022-07-29T08:15:42;101050.40;;;27.90;90.27
45441;BME280;31189;38.790;-77.084;2022-07-29T08:18:10;101052.07;;;27.42;91.79
45441;BME280;31189;38.790;-77.084;2022-07-29T08:20:39;101058.26;;;27.56;91.79
45441;BME280;31189;38.790;-77.084;2022-07-29T08:23:08;101062.22;;;27.62;91.26
45441;BME280;31189;38.790;-77.084;2022-07-29T08:25:37;101066.03;;;27.97;91.71
45441;BME280;31189;38.790;-77.084;2022-07-29T08:28:06;101072.48;;;27.92;90.73
45441;BME280;31189;38.790;-77.084;2022-07-29T08:30:33;101077.50;;;27.91;90.33
45441;BME280;31189;38.790;-77.084;2022-07-29T08:33:02;101080.79;;;27.69;89.73
45441;BME280;31189;38.790;-77.084;2022-07-29T08:35:30;101083.46;;;28.02;89.92
45441;BME280;31189;38.790;-77.084;2022-07-29T08:37:58;101083.78;;;27.61;90.45
45441;BME280;31189;38.790;-77.084;2022-07-29T08:40:26;101082.72;;;27.78;90.25
45441;BME280;31189;38.790;-77.084;2022-07-29T08:42:54;101081.96;;;27.61;91.48
45441;BME280;31189;38.790;-77.084;2022-07-29T08:45:23;101077.85;;;27.25;93.54
45441;BME280;31189;38.790;-77.084;2022-07-29T08:47:52;101076.96;;;27.15;92.56
45441;BME280;31189;38.790;-77.084;2022-07-29T08:50:20;101074.05;;;27.44;92.82
45441;BME280;31189;38.790;-77.084;2022-07-29T08:52:49;101067.78;;;27.65;90.66
45441;BME280;31189;38.790;-77.084;2022-07-29T08:55:18;101061.81;;;27.82;90.71
45441;BME280;31189;38.790;-77.084;2022-07-29T08:57:47;101064.85;;;27.53;91.42
45441;BME280;31189;38.790;-77.084;2022-07-29T09:00:15;101070.15;;;27.54;92.95
45441;BME280;31189;38.790;-77.084;2022-07-29T09:02:46;101069.91;;;27.82;90.39
45441;BME280;31189;38.790;-77.084;2022-07-29T09:05:18;101075.47;;;27.68;90.10
45441;BME280;31189;38.790;-77.084;2022-07-29T09:07:46;101077.67;;;27.60;90.03
45441;BME280;31189;38.790;-77.084;2022-07-29T09:10:14;101080.39;;;27.56;90.01
45441;BME280;31189;38.790;-77.084;2022-07-29T09:12:42;101083.23;;;27.69;90.56
45441;BME280;31189;38.790;-77.084;2022-07-29T09:15:10;101086.84;;;27.60;90.53
45441;BME280;31189;38.790;-77.084;2022-07-29T09:17:43;101091.70;;;27.79;90.59
45441;BME280;31189;38.790;-77.084;2022-07-29T09:20:13;101093.18;;;28.03;91.16
45441;BME280;31189;38.790;-77.084;2022-07-29T09:22:41;101091.16;;;27.56;89.91
45441;BME280;31189;38.790;-77.084;2022-07-29T09:25:12;101088.78;;;27.90;90.41
45441;BME280;31189;38.790;-77.084;2022-07-29T09:27:40;101095.42;;;27.78;90.25
45441;BME280;31189;38.790;-77.084;2022-07-29T09:30:10;101097.44;;;27.70;91.15
45441;BME280;31189;38.790;-77.084;2022-07-29T09:32:58;101097.83;;;27.58;90.40
45441;BME280;31189;38.790;-77.084;2022-07-29T09:35:28;101099.48;;;27.54;90.77
45441;BME280;31189;38.790;-77.084;2022-07-29T09:37:57;101099.21;;;27.68;90.68
45441;BME280;31189;38.790;-77.084;2022-07-29T09:40:27;101103.40;;;27.85;90.64
45441;BME280;31189;38.790;-77.084;2022-07-29T09:42:55;101102.22;;;27.58;90.39
45441;BME280;31189;38.790;-77.084;2022-07-29T09:45:32;101102.61;;;28.07;89.62
45441;BME280;31189;38.790;-77.084;2022-07-29T09:48:13;101100.77;;;28.04;89.11
45441;BME280;31189;38.790;-77.084;2022-07-29T09:50:43;101101.70;;;27.59;90.95
45441;BME280;31189;38.790;-77.084;2022-07-29T09:53:12;101109.59;;;27.35;92.38
45441;BME280;31189;38.790;-77.084;2022-07-29T09:55:57;101110.69;;;27.40;91.22
45441;BME280;31189;38.790;-77.084;2022-07-29T09:58:25;101107.46;;;27.75;91.06
45441;BME280;31189;38.790;-77.084;2022-07-29T10:00:54;101109.57;;;27.26;91.03
45441;BME280;31189;38.790;-77.084;2022-07-29T10:03:23;101114.90;;;26.70;93.86
45441;BME280;31189;38.790;-77.084;2022-07-29T10:06:06;101117.52;;;27.92;90.01
45441;BME280;31189;38.790;-77.084;2022-07-29T10:08:34;101121.41;;;27.86;89.97
45441;BME280;31189;38.790;-77.084;2022-07-29T10:11:11;101127.98;;;27.59;90.17
45441;BME280;31189;38.790;-77.084;2022-07-29T10:13:41;101129.89;;;27.99;89.65
45441;BME280;31189;38.790;-77.084;2022-07-29T10:16:10;101132.92;;;27.65;90.15
45441;BME280;31189;38.790;-77.084;2022-07-29T10:18:39;101134.55;;;27.07;90.64
45441;BME280;31189;38.790;-77.084;2022-07-29T10:21:09;101133.53;;;27.86;91.10
45441;BME280;31189;38.790;-77.084;2022-07-29T10:23:39;101133.78;;;27.70;91.83
45441;BME280;31189;38.790;-77.084;2022-07-29T10:26:07;101132.44;;;27.30;92.20
45441;BME280;31189;38.790;-77.084;2022-07-29T10:28:35;101125.74;;;27.88;91.87
45441;BME280;31189;38.790;-77.084;2022-07-29T10:31:06;101124.24;;;27.17;92.99
45441;BME280;31189;38.790;-77.084;2022-07-29T10:33:45;101137.36;;;27.02;94.89
45441;BME280;31189;38.790;-77.084;2022-07-29T10:36:25;101140.95;;;27.88;90.59
45441;BME280;31189;38.790;-77.084;2022-07-29T10:39:05;101146.39;;;27.82;91.37
45441;BME280;31189;38.790;-77.084;2022-07-29T10:41:56;101143.92;;;27.44;92.11
45441;BME280;31189;38.790;-77.084;2022-07-29T10:44:27;101146.51;;;27.21;92.96
45441;BME280;31189;38.790;-77.084;2022-07-29T10:46:55;101147.36;;;27.55;93.28
45441;BME280;31189;38.790;-77.084;2022-07-29T10:49:24;101146.72;;;27.76;91.62
45441;BME280;31189;38.790;-77.084;2022-07-29T10:51:55;101141.64;;;27.33;92.82
45441;BME280;31189;38.790;-77.084;2022-07-29T10:54:41;101139.15;;;27.79;91.50
45441;BME280;31189;38.790;-77.084;2022-07-29T10:57:15;101130.63;;;28.17;90.89
45441;BME280;31189;38.790;-77.084;2022-07-29T10:59:44;101131.64;;;27.63;93.83
45441;BME280;31189;38.790;-77.084;2022-07-29T11:02:46;101135.98;;;28.08;94.34
45441;BME280;31189;38.790;-77.084;2022-07-29T11:05:15;101139.26;;;27.51;94.78
45441;BME280;31189;38.790;-77.084;2022-07-29T11:08:20;101142.32;;;27.79;94.00
45441;BME280;31189;38.790;-77.084;2022-07-29T11:10:50;101147.25;;;28.50;90.81
45441;BME280;31189;38.790;-77.084;2022-07-29T11:13:51;101150.23;;;28.85;91.95
45441;BME280;31189;38.790;-77.084;2022-07-29T11:16:20;101147.03;;;28.37;91.99
45441;BME280;31189;38.790;-77.084;2022-07-29T11:19:21;101145.57;;;29.02;93.01
45441;BME280;31189;38.790;-77.084;2022-07-29T11:21:50;101151.84;;;27.93;94.34
45441;BME280;31189;38.790;-77.084;2022-07-29T11:24:20;101154.49;;;28.41;93.65
45441;BME280;31189;38.790;-77.084;2022-07-29T11:27:12;101154.38;;;28.50;93.05
45441;BME280;31189;38.790;-77.084;2022-07-29T11:29:49;101155.87;;;28.43;93.55
45441;BME280;31189;38.790;-77.084;2022-07-29T11:32:18;101151.52;;;28.93;91.99
45441;BME280;31189;38.790;-77.084;2022-07-29T11:34:48;101153.11;;;28.74;92.08
45441;BME280;31189;38.790;-77.084;2022-07-29T11:37:20;101156.43;;;28.37;92.73
45441;BME280;31189;38.790;-77.084;2022-07-29T11:40:11;101155.81;;;28.71;94.90
45441;BME280;31189;38.790;-77.084;2022-07-29T11:42:42;101163.32;;;28.49;95.26
45441;BME280;31189;38.790;-77.084;2022-07-29T11:45:12;101172.09;;;28.57;94.31
45441;BME280;31189;38.790;-77.084;2022-07-29T11:47:41;101179.45;;;28.63;94.67
45441;BME280;31189;38.790;-77.084;2022-07-29T11:50:12;101183.33;;;29.48;92.98
45441;BME280;31189;38.790;-77.084;2022-07-29T11:52:42;101183.14;;;29.64;92.17
45441;BME280;31189;38.790;-77.084;2022-07-29T11:55:11;101172.31;;;29.14;92.98
45441;BME280;31189;38.790;-77.084;2022-07-29T11:57:46;101159.52;;;28.99;94.10
45441;BME280;31189;38.790;-77.084;2022-07-29T12:00:23;101151.94;;;29.56;92.73
45441;BME280;31189;38.790;-77.084;2022-07-29T12:02:52;101145.40;;;29.18;92.79
45441;BME280;31189;38.790;-77.084;2022-07-29T12:05:20;101144.95;;;29.53;92.67
45441;BME280;31189;38.790;-77.084;2022-07-29T12:07:50;101147.46;;;29.61;92.20
45441;BME280;31189;38.790;-77.084;2022-07-29T12:10:17;101145.44;;;29.82;91.44
45441;BME280;31189;38.790;-77.084;2022-07-29T12:12:51;101149.89;;;30.17;91.37
45441;BME280;31189;38.790;-77.084;2022-07-29T12:15:20;101154.83;;;29.67;91.88
45441;BME280;31189;38.790;-77.084;2022-07-29T12:17:48;101157.69;;;29.99;91.75
45441;BME280;31189;38.790;-77.084;2022-07-29T12:20:24;101160.93;;;29.72;92.38
45441;BME280;31189;38.790;-77.084;2022-07-29T12:22:53;101162.62;;;29.46;91.87
45441;BME280;31189;38.790;-77.084;2022-07-29T12:25:23;101163.12;;;30.24;92.04
45441;BME280;31189;38.790;-77.084;2022-07-29T12:27:59;101163.75;;;30.02;91.32
45441;BME280;31189;38.790;-77.084;2022-07-29T12:30:52;101164.04;;;30.01;91.64
45441;BME280;31189;38.790;-77.084;2022-07-29T12:33:22;101164.99;;;29.40;94.10
45441;BME280;31189;38.790;-77.084;2022-07-29T12:35:53;101165.83;;;29.82;92.42
45441;BME280;31189;38.790;-77.084;2022-07-29T12:38:21;101167.78;;;30.27;91.83
45441;BME280;31189;38.790;-77.084;2022-07-29T12:40:52;101165.42;;;30.15;91.57
45441;BME280;31189;38.790;-77.084;2022-07-29T12:43:22;101159.81;;;30.27;91.61
45441;BME280;31189;38.790;-77.084;2022-07-29T12:45:52;101164.80;;;30.41;92.11
45441;BME280;31189;38.790;-77.084;2022-07-29T12:48:33;101167.72;;;29.90;94.30